Time;durP1;ratioP1;P1;durP2;ratioP2;P2;SDS_P1;SDS_P2;PMS_P1;PMS_P2;Temp;Humidity;BMP_temperature;BMP_pressure;BME280_temperature;BME280_humidity;BME280_pressure;Samples;Min_cycle;Max_cycle;Signal;HPM_P1;HPM_P2
2023/06/20 00:00:39;;;;;;;8.57;7.67;;;;;;;;;;4976517;28;20519;-70
2023/06/20 00:03:45;;;;;;;9.10;8.20;;;;;;;;;;4987191;28;20178;-70
2023/06/20 00:06:49;;;;;;;12.27;8.27;;;;;;;;;;4976799;28;20178;-70
2023/06/20 00:09:53;;;;;;;8.97;8.13;;;;;;;;;;4976287;28;20523;-70
2023/06/20 00:12:59;;;;;;;8.97;8.03;;;;;;;;;;4976448;28;20649;-70
2023/06/20 00:16:03;;;;;;;9.00;8.10;;;;;;;;;;4976249;28;20223;-70
2023/06/20 00:19:08;;;;;;;10.17;7.70;;;;;;;;;;4986619;28;20207;-70
2023/06/20 00:22:12;;;;;;;9.27;8.47;;;;;;;;;;4975922;28;20223;-70
2023/06/20 00:25:17;;;;;;;9.37;8.47;;;;;;;;;;4976149;28;20202;-70
2023/06/20 00:28:21;;;;;;;10.33;8.77;;;;;;;;;;4976000;28;20195;-70
2023/06/20 00:31:25;;;;;;;9.67;8.23;;;;;;;;;;4974991;28;20218;-70
2023/06/20 00:34:29;;;;;;;9.30;8.40;;;;;;;;;;4986164;28;20187;-70
2023/06/20 00:37:36;;;;;;;8.93;7.43;;;;;;;;;;4974872;28;20523;-70
2023/06/20 00:40:41;;;;;;;9.67;8.33;;;;;;;;;;4985977;28;20186;-70
2023/06/20 00:43:45;;;;;;;10.33;8.27;;;;;;;;;;4986298;28;20179;-71
2023/06/20 00:46:49;;;;;;;8.73;7.17;;;;;;;;;;4963721;28;20187;-71
2023/06/20 00:49:54;;;;;;;9.23;8.30;;;;;;;;;;4975054;28;20178;-70
2023/06/20 00:53:00;;;;;;;10.30;7.77;;;;;;;;;;4985783;28;20187;-71
2023/06/20 00:56:05;;;;;;;8.60;7.37;;;;;;;;;;4974800;28;20183;-70
2023/06/20 00:59:09;;;;;;;8.43;7.60;;;;;;;;;;4975251;28;20215;-71
2023/06/20 01:02:14;;;;;;;7.67;6.87;;;;;;;;;;4975217;28;20218;-70
2023/06/20 01:05:27;;;;;;;7.77;6.83;;;;;;;;;;4975459;28;20633;-70
2023/06/20 01:08:45;;;;;;;7.70;7.00;;;;;;;;;;4985811;28;20179;-71
2023/06/20 01:12:07;;;;;;;9.17;7.70;;;;;;;;;;4974304;28;20219;-70
2023/06/20 01:15:39;;;;;;;7.70;6.33;;;;;;;;;;4974677;28;20531;-70
2023/06/20 01:19:04;;;;;;;8.10;7.30;;;;;;;;;;4985525;28;20210;-71
2023/06/20 01:22:15;;;;;;;7.33;6.63;;;;;;;;;;4974853;28;20566;-70
2023/06/20 01:25:40;;;;;;;7.70;6.90;;;;;;;;;;4985753;28;20179;-70
2023/06/20 01:28:51;;;;;;;7.83;6.40;;;;;;;;;;4974015;28;20175;-71
2023/06/20 01:31:59;;;;;;;7.63;6.50;;;;;;;;;;4974720;28;20215;-70
2023/06/20 01:35:11;;;;;;;7.63;6.83;;;;;;;;;;4975004;28;20183;-71
2023/06/20 01:38:17;;;;;;;6.97;6.33;;;;;;;;;;4984935;28;20206;-70
2023/06/20 01:41:24;;;;;;;7.93;6.83;;;;;;;;;;4973939;28;20218;-70
2023/06/20 01:44:30;;;;;;;7.00;6.30;;;;;;;;;;4984935;28;20187;-70
2023/06/20 01:47:37;;;;;;;10.47;6.10;;;;;;;;;;4974010;28;20183;-71
2023/06/20 01:50:42;;;;;;;7.67;6.33;;;;;;;;;;4974489;28;20202;-70
2023/06/20 01:53:48;;;;;;;6.33;5.60;;;;;;;;;;4974446;28;20183;-70
2023/06/20 01:56:54;;;;;;;7.30;6.40;;;;;;;;;;4974047;28;20183;-71
2023/06/20 01:59:59;;;;;;;7.20;5.77;;;;;;;;;;4984717;28;20215;-70
2023/06/20 02:03:05;;;;;;;6.63;5.93;;;;;;;;;;4984951;28;20198;-70
2023/06/20 02:06:11;;;;;;;6.83;5.93;;;;;;;;;;4962637;28;20202;-71
2023/06/20 02:09:16;;;;;;;6.67;6.07;;;;;;;;;;4973832;28;20175;-71
2023/06/20 02:12:20;;;;;;;6.97;6.20;;;;;;;;;;4973938;28;20214;-71
2023/06/20 02:15:26;;;;;;;6.70;5.80;;;;;;;;;;4984795;28;20179;-70
2023/06/20 02:18:32;;;;;;;6.37;5.57;;;;;;;;;;4973629;28;20210;-71
2023/06/20 02:21:37;;;;;;;6.80;5.10;;;;;;;;;;4974676;28;20551;-71
2023/06/20 02:24:43;;;;;;;6.10;5.50;;;;;;;;;;4974129;28;20187;-70
2023/06/20 02:27:51;;;;;;;5.60;5.03;;;;;;;;;;4974377;28;20183;-71
2023/06/20 02:30:57;;;;;;;6.27;5.60;;;;;;;;;;4974021;28;20562;-70
2023/06/20 02:34:04;;;;;;;4.87;4.37;;;;;;;;;;4973299;28;20561;-71
2023/06/20 02:37:09;;;;;;;5.73;5.13;;;;;;;;;;4974309;28;20625;-71
2023/06/20 02:40:14;;;;;;;5.23;4.73;;;;;;;;;;4974103;28;20673;-71
2023/06/20 02:43:18;;;;;;;8.30;5.27;;;;;;;;;;4974582;28;20191;-70
2023/06/20 02:46:36;;;;;;;6.90;5.93;;;;;;;;;;4973249;28;20186;-71
2023/06/20 02:49:49;;;;;;;7.80;7.00;;;;;;;;;;4984520;28;20523;-71
2023/06/20 02:53:09;;;;;;;11.23;6.73;;;;;;;;;;4962084;28;20183;-70
2023/06/20 02:56:15;;;;;;;7.07;6.37;;;;;;;;;;4984285;28;20179;-70
2023/06/20 02:59:25;;;;;;;6.70;5.97;;;;;;;;;;4973321;28;20199;-70
2023/06/20 03:02:31;;;;;;;5.90;5.30;;;;;;;;;;4973253;28;20685;-70
2023/06/20 03:05:38;;;;;;;7.30;5.20;;;;;;;;;;4984488;28;20183;-71
2023/06/20 03:08:49;;;;;;;5.87;5.27;;;;;;;;;;4986396;28;20179;-71
2023/06/20 03:11:53;;;;;;;5.97;5.30;;;;;;;;;;4987741;28;20218;-71
2023/06/20 03:14:57;;;;;;;5.30;4.80;;;;;;;;;;4976425;28;20175;-70
2023/06/20 03:18:01;;;;;;;5.13;4.63;;;;;;;;;;4987573;28;20187;-71
2023/06/20 03:21:06;;;;;;;5.10;4.47;;;;;;;;;;4987776;28;20215;-71
2023/06/20 03:24:11;;;;;;;4.90;4.40;;;;;;;;;;4976584;28;20183;-70
2023/06/20 03:27:16;;;;;;;5.70;5.10;;;;;;;;;;4976501;28;20178;-71
2023/06/20 03:30:21;;;;;;;4.77;4.37;;;;;;;;;;4976385;28;20175;-70
2023/06/20 03:33:27;;;;;;;7.30;4.77;;;;;;;;;;4976444;28;20187;-71
2023/06/20 03:36:31;;;;;;;5.30;4.23;;;;;;;;;;4987521;28;20183;-70
2023/06/20 03:39:36;;;;;;;5.93;4.40;;;;;;;;;;4976727;28;20219;-70
2023/06/20 03:42:41;;;;;;;5.10;4.60;;;;;;;;;;4976175;28;20218;-71
2023/06/20 03:45:45;;;;;;;5.97;4.57;;;;;;;;;;4987265;28;20187;-70
2023/06/20 03:48:49;;;;;;;4.37;3.77;;;;;;;;;;4976937;28;20175;-71
2023/06/20 03:51:54;;;;;;;5.70;4.60;;;;;;;;;;4964551;28;20333;-70
2023/06/20 03:54:59;;;;;;;5.50;4.23;;;;;;;;;;4976043;28;20187;-71
2023/06/20 03:58:04;;;;;;;6.00;3.77;;;;;;;;;;4975642;28;20194;-71
2023/06/20 04:01:08;;;;;;;5.07;4.10;;;;;;;;;;4975613;28;20207;-71
2023/06/20 04:04:13;;;;;;;3.97;3.23;;;;;;;;;;4976319;28;20199;-71
2023/06/20 04:07:21;;;;;;;5.30;4.23;;;;;;;;;;4976825;28;20630;-71
2023/06/20 04:10:25;;;;;;;5.30;4.07;;;;;;;;;;4975629;28;20183;-70
2023/06/20 04:13:30;;;;;;;5.27;4.23;;;;;;;;;;4986833;28;20531;-70
2023/06/20 04:16:36;;;;;;;6.10;4.33;;;;;;;;;;4975398;28;20182;-70
2023/06/20 04:19:40;;;;;;;5.07;4.07;;;;;;;;;;4975425;28;20202;-70
2023/06/20 04:22:45;;;;;;;4.17;3.73;;;;;;;;;;4986291;28;20210;-71
2023/06/20 04:25:48;;;;;;;6.53;4.43;;;;;;;;;;4986607;28;20179;-71
2023/06/20 04:28:53;;;;;;;4.50;4.10;;;;;;;;;;4964037;28;20629;-71
2023/06/20 04:31:58;;;;;;;4.67;3.80;;;;;;;;;;4986092;28;20693;-71
2023/06/20 04:35:03;;;;;;;5.63;4.10;;;;;;;;;;4986166;28;20183;-71
2023/06/20 04:38:07;;;;;;;4.33;3.93;;;;;;;;;;4975203;28;20179;-71
2023/06/20 04:41:11;;;;;;;4.33;3.70;;;;;;;;;;4974965;28;20222;-71
2023/06/20 04:44:15;;;;;;;3.97;3.50;;;;;;;;;;4986581;28;20178;-71
2023/06/20 04:47:19;;;;;;;4.13;3.77;;;;;;;;;;4986202;28;20182;-70
2023/06/20 04:50:24;;;;;;;4.97;3.93;;;;;;;;;;4975429;28;20195;-71
2023/06/20 04:53:28;;;;;;;4.17;3.77;;;;;;;;;;4975705;28;20187;-71
2023/06/20 04:57:06;;;;;;;4.67;4.17;;;;;;;;;;4975710;28;20175;-71
2023/06/20 05:00:12;;;;;;;5.53;4.30;;;;;;;;;;4984646;28;20226;-72
2023/06/20 05:03:19;;;;;;;4.57;4.17;;;;;;;;;;4966305;28;20543;-72
2023/06/20 05:06:23;;;;;;;5.47;4.13;;;;;;;;;;4944059;29;20196;-72
2023/06/20 05:09:28;;;;;;;6.57;4.27;;;;;;;;;;4966073;28;20180;-72
2023/06/20 05:12:32;;;;;;;4.67;4.17;;;;;;;;;;4955739;28;20223;-72
2023/06/20 05:15:37;;;;;;;6.77;4.43;;;;;;;;;;4954931;29;20179;-73
2023/06/20 05:18:41;;;;;;;5.17;4.37;;;;;;;;;;4955812;29;20195;-72
2023/06/20 05:21:46;;;;;;;5.77;4.50;;;;;;;;;;4955655;28;20223;-72
2023/06/20 05:24:50;;;;;;;4.60;4.17;;;;;;;;;;4954890;29;20195;-72
2023/06/20 05:27:54;;;;;;;6.70;4.37;;;;;;;;;;4966076;28;20210;-72
2023/06/20 05:30:58;;;;;;;5.87;4.13;;;;;;;;;;4954817;28;20215;-72
2023/06/20 05:34:03;;;;;;;5.40;4.20;;;;;;;;;;4955463;29;20199;-72
2023/06/20 05:37:07;;;;;;;5.27;4.73;;;;;;;;;;4955326;29;20199;-72
2023/06/20 05:40:12;;;;;;;5.13;4.63;;;;;;;;;;4955389;29;20211;-71
2023/06/20 05:43:16;;;;;;;4.93;4.50;;;;;;;;;;4955567;29;20195;-71
2023/06/20 05:46:20;;;;;;;6.20;4.53;;;;;;;;;;4955868;29;20187;-71
2023/06/20 05:49:24;;;;;;;5.77;4.67;;;;;;;;;;4954400;29;20179;-72
2023/06/20 05:52:28;;;;;;;7.80;4.70;;;;;;;;;;4965142;28;20223;-71
2023/06/20 05:55:33;;;;;;;7.50;4.97;;;;;;;;;;4954577;29;20184;-71
2023/06/20 05:58:37;;;;;;;4.93;4.53;;;;;;;;;;4954939;29;20209;-71
2023/06/20 06:01:42;;;;;;;7.00;4.67;;;;;;;;;;4954502;28;20213;-71
2023/06/20 06:04:46;;;;;;;5.47;4.87;;;;;;;;;;4955120;29;20185;-71
2023/06/20 06:07:50;;;;;;;7.93;4.90;;;;;;;;;;4954147;29;20187;-71
2023/06/20 06:10:54;;;;;;;6.40;4.73;;;;;;;;;;4954903;28;20213;-71
2023/06/20 06:13:58;;;;;;;5.83;4.80;;;;;;;;;;4955235;29;20185;-72
2023/06/20 06:17:02;;;;;;;6.10;4.90;;;;;;;;;;4954863;29;20186;-73
2023/06/20 06:20:10;;;;;;;5.43;4.90;;;;;;;;;;4953708;29;20217;-72
2023/06/20 06:23:14;;;;;;;6.17;4.60;;;;;;;;;;4954851;29;20546;-72
2023/06/20 06:26:18;;;;;;;6.73;5.50;;;;;;;;;;4954753;29;20201;-72
2023/06/20 06:29:22;;;;;;;6.27;4.47;;;;;;;;;;4954819;29;20195;-72
2023/06/20 06:32:27;;;;;;;5.43;4.63;;;;;;;;;;4954786;28;20217;-72
2023/06/20 06:35:32;;;;;;;8.10;4.73;;;;;;;;;;4954688;29;20184;-72
2023/06/20 06:38:36;;;;;;;5.30;4.60;;;;;;;;;;4965020;28;20180;-73
2023/06/20 06:41:43;;;;;;;6.03;4.13;;;;;;;;;;4954560;28;20211;-72
2023/06/20 06:44:47;;;;;;;5.60;4.20;;;;;;;;;;4958151;29;20642;-72
2023/06/20 06:47:51;;;;;;;7.53;4.47;;;;;;;;;;4958326;29;20204;-72
2023/06/20 06:50:56;;;;;;;6.57;4.10;;;;;;;;;;4958265;28;20217;-72
2023/06/20 06:54:00;;;;;;;5.23;4.07;;;;;;;;;;4968428;28;20204;-72
2023/06/20 06:57:04;;;;;;;4.60;4.00;;;;;;;;;;4958279;29;20221;-72
2023/06/20 07:00:12;;;;;;;5.33;4.17;;;;;;;;;;4958294;29;20218;-72
2023/06/20 07:03:16;;;;;;;8.10;4.10;;;;;;;;;;4958443;29;20627;-72
2023/06/20 07:06:21;;;;;;;4.67;3.63;;;;;;;;;;4957873;29;20182;-72
2023/06/20 07:09:25;;;;;;;4.53;3.50;;;;;;;;;;4957991;29;20200;-72
2023/06/20 07:12:29;;;;;;;4.00;3.50;;;;;;;;;;4958215;28;20553;-71
2023/06/20 07:15:33;;;;;;;3.57;3.13;;;;;;;;;;4957933;29;20190;-71
2023/06/20 07:18:37;;;;;;;3.50;3.20;;;;;;;;;;4957812;29;20181;-71
2023/06/20 07:21:41;;;;;;;3.83;3.20;;;;;;;;;;4957123;28;20242;-71
2023/06/20 07:24:46;;;;;;;3.57;3.13;;;;;;;;;;4958235;29;20188;-72
2023/06/20 07:27:49;;;;;;;4.23;3.30;;;;;;;;;;4957240;29;20186;-71
2023/06/20 07:30:53;;;;;;;3.37;2.90;;;;;;;;;;4968183;28;20214;-71
2023/06/20 07:33:58;;;;;;;3.37;3.00;;;;;;;;;;4968058;28;20189;-71
2023/06/20 07:37:02;;;;;;;3.73;3.07;;;;;;;;;;4968229;28;20183;-71
2023/06/20 07:40:07;;;;;;;3.13;2.83;;;;;;;;;;4957767;29;20218;-71
2023/06/20 07:43:11;;;;;;;2.80;2.43;;;;;;;;;;4957036;29;20194;-71
2023/06/20 07:46:15;;;;;;;3.00;2.77;;;;;;;;;;4957481;29;20636;-71
2023/06/20 07:49:20;;;;;;;3.07;2.77;;;;;;;;;;4956742;29;20207;-71
2023/06/20 07:52:24;;;;;;;4.60;2.63;;;;;;;;;;4967203;28;20225;-71
2023/06/20 07:55:28;;;;;;;3.40;2.53;;;;;;;;;;4956226;28;20641;-71
2023/06/20 07:58:32;;;;;;;6.13;2.40;;;;;;;;;;4957091;29;20204;-71
2023/06/20 08:01:36;;;;;;;2.78;2.30;;;;;;;;;;4956294;28;20231;-71
2023/06/20 08:04:41;;;;;;;2.58;2.38;;;;;;;;;;4947888;28;20658;-70
2023/06/20 08:07:47;;;;;;;4.50;2.78;;;;;;;;;;4937358;29;20182;-71
2023/06/20 08:10:52;;;;;;;3.10;2.72;;;;;;;;;;4948167;29;20218;-69
2023/06/20 08:13:56;;;;;;;2.85;2.33;;;;;;;;;;4937758;29;20203;-70
2023/06/20 08:17:00;;;;;;;3.22;2.47;;;;;;;;;;4936840;29;20207;-70
2023/06/20 08:20:09;;;;;;;3.50;2.55;;;;;;;;;;4937874;29;20216;-70
2023/06/20 08:23:26;;;;;;;3.97;2.63;;;;;;;;;;4937064;29;20547;-70
2023/06/20 08:26:30;;;;;;;2.92;2.20;;;;;;;;;;4937095;29;20192;-71
2023/06/20 08:29:34;;;;;;;2.58;2.00;;;;;;;;;;4937485;29;20204;-70
2023/06/20 08:32:41;;;;;;;2.30;2.10;;;;;;;;;;4936624;29;20223;-70
2023/06/20 08:35:50;;;;;;;4.38;2.30;;;;;;;;;;4937377;29;20181;-70
2023/06/20 08:38:54;;;;;;;7.40;2.05;;;;;;;;;;4937866;29;20648;-70
2023/06/20 08:41:58;;;;;;;2.33;1.85;;;;;;;;;;4936340;29;20232;-70
2023/06/20 08:45:02;;;;;;;2.45;2.10;;;;;;;;;;4937230;29;20523;-70
2023/06/20 08:48:07;;;;;;;2.72;2.15;;;;;;;;;;4936476;29;20185;-71
2023/06/20 08:51:14;;;;;;;3.55;2.08;;;;;;;;;;4937243;29;20216;-71
2023/06/20 08:54:21;;;;;;;2.28;2.08;;;;;;;;;;4937172;29;20531;-70
2023/06/20 08:57:24;;;;;;;2.30;2.10;;;;;;;;;;4936845;29;20212;-71
2023/06/20 09:00:30;;;;;;;3.08;2.25;;;;;;;;;;4936089;29;20220;-70
2023/06/20 09:03:37;;;;;;;2.80;2.10;;;;;;;;;;4935931;29;20181;-70
2023/06/20 09:06:42;;;;;;;3.25;1.88;;;;;;;;;;4937194;29;20189;-71
2023/06/20 09:09:46;;;;;;;3.45;2.10;;;;;;;;;;4936106;29;20639;-71
2023/06/20 09:12:52;;;;;;;7.00;2.20;;;;;;;;;;4936841;29;20204;-71
2023/06/20 09:16:07;;;;;;;3.55;2.30;;;;;;;;;;4935874;29;20184;-71
2023/06/20 09:19:11;;;;;;;2.10;1.90;;;;;;;;;;4935592;29;20200;-72
2023/06/20 09:22:18;;;;;;;4.53;2.03;;;;;;;;;;4946513;29;20228;-71
2023/06/20 09:25:28;;;;;;;4.03;1.80;;;;;;;;;;4924755;29;20652;-71
2023/06/20 09:28:32;;;;;;;2.47;1.80;;;;;;;;;;4936345;29;20196;-71
2023/06/20 09:31:55;;;;;;;3.10;1.80;;;;;;;;;;4934420;29;20216;-71
2023/06/20 09:35:04;;;;;;;3.03;1.67;;;;;;;;;;4936003;29;20616;-70
2023/06/20 09:38:09;;;;;;;4.13;1.60;;;;;;;;;;4936420;29;20200;-70
2023/06/20 09:41:19;;;;;;;2.40;1.67;;;;;;;;;;4935392;29;20574;-71
2023/06/20 09:44:25;;;;;;;2.35;1.35;;;;;;;;;;4935573;29;20185;-71
2023/06/20 09:47:29;;;;;;;1.63;1.52;;;;;;;;;;4936049;29;20181;-71
2023/06/20 09:50:34;;;;;;;7.63;1.75;;;;;;;;;;4936410;29;20173;-71
2023/06/20 09:53:57;;;;;;;4.30;1.85;;;;;;;;;;4936067;29;20196;-71
2023/06/20 09:57:07;;;;;;;2.10;1.77;;;;;;;;;;4935967;29;20185;-71
2023/06/20 10:00:15;;;;;;;2.25;2.03;;;;;;;;;;4935984;29;20188;-71
2023/06/20 10:03:20;;;;;;;2.90;1.80;;;;;;;;;;4935280;29;20185;-71
2023/06/20 10:06:25;;;;;;;2.25;1.75;;;;;;;;;;4936247;29;20188;-71
2023/06/20 10:09:29;;;;;;;3.15;1.75;;;;;;;;;;4935879;29;20180;-71
2023/06/20 10:12:34;;;;;;;2.60;1.70;;;;;;;;;;4935805;29;20216;-71
2023/06/20 10:15:39;;;;;;;2.22;1.52;;;;;;;;;;4935791;29;20188;-71
2023/06/20 10:18:47;;;;;;;2.08;1.80;;;;;;;;;;4937217;29;20550;-70
2023/06/20 10:21:59;;;;;;;2.22;1.45;;;;;;;;;;4938670;29;20236;-71
2023/06/20 10:25:11;;;;;;;3.78;1.80;;;;;;;;;;4938959;29;20188;-71
2023/06/20 10:28:19;;;;;;;1.55;1.45;;;;;;;;;;4939533;29;20189;-71
2023/06/20 10:31:23;;;;;;;2.40;1.50;;;;;;;;;;4939452;29;20217;-71
2023/06/20 10:34:37;;;;;;;6.57;1.98;;;;;;;;;;4939416;29;20188;-71
2023/06/20 10:37:42;;;;;;;2.65;1.75;;;;;;;;;;4938766;29;20559;-71
2023/06/20 10:40:46;;;;;;;1.83;1.52;;;;;;;;;;4939874;29;20236;-71
2023/06/20 10:43:58;;;;;;;4.47;1.80;;;;;;;;;;4938382;29;20180;-71
2023/06/20 10:47:03;;;;;;;3.05;2.00;;;;;;;;;;4939348;29;20663;-71
2023/06/20 10:50:08;;;;;;;2.17;1.90;;;;;;;;;;4939457;29;20528;-71
2023/06/20 10:53:13;;;;;;;3.40;1.90;;;;;;;;;;4939136;29;20530;-70
2023/06/20 10:56:27;;;;;;;2.92;1.65;;;;;;;;;;4939244;29;20184;-70
2023/06/20 10:59:31;;;;;;;7.28;2.08;;;;;;;;;;4938536;29;20192;-71
2023/06/20 11:02:36;;;;;;;5.57;2.10;;;;;;;;;;4938843;29;20228;-70
2023/06/20 11:05:40;;;;;;;8.45;2.10;;;;;;;;;;5000115;23;20556;-72
2023/06/20 11:08:45;;;;;;;3.75;2.03;;;;;;;;;;5015880;28;20178;-69
2023/06/20 11:11:49;;;;;;;3.33;1.65;;;;;;;;;;5028029;28;20217;-69
2023/06/20 11:14:53;;;;;;;4.57;2.03;;;;;;;;;;5036215;28;20185;-69
2023/06/20 11:18:01;;;;;;;3.45;2.22;;;;;;;;;;5035585;28;20181;-69
2023/06/20 11:21:06;;;;;;;3.45;2.13;;;;;;;;;;5035905;28;20233;-69
2023/06/20 11:24:10;;;;;;;5.05;1.83;;;;;;;;;;5036269;28;20521;-69
2023/06/20 11:27:15;;;;;;;7.00;2.17;;;;;;;;;;5036162;28;20181;-70
2023/06/20 11:30:27;;;;;;;3.55;2.30;;;;;;;;;;5035791;28;20185;-70
2023/06/20 11:33:31;;;;;;;7.20;2.40;;;;;;;;;;5035264;28;20173;-70
2023/06/20 11:36:37;;;;;;;8.32;2.28;;;;;;;;;;5036093;28;20523;-70
2023/06/20 11:39:41;;;;;;;6.00;2.15;;;;;;;;;;5035010;28;20177;-70
2023/06/20 11:42:45;;;;;;;5.05;2.20;;;;;;;;;;5036491;28;20567;-70
2023/06/20 11:45:49;;;;;;;3.30;2.00;;;;;;;;;;5035681;28;20181;-70
2023/06/20 11:48:58;;;;;;;3.83;2.20;;;;;;;;;;5035926;28;20177;-70
2023/06/20 11:52:02;;;;;;;4.97;2.42;;;;;;;;;;5035747;28;20209;-70
2023/06/20 11:55:07;;;;;;;4.93;2.40;;;;;;;;;;5035635;28;20189;-69
2023/06/20 11:58:12;;;;;;;5.93;2.35;;;;;;;;;;5034557;28;20177;-70
2023/06/20 12:01:20;;;;;;;5.30;2.70;;;;;;;;;;5035118;28;20220;-70
2023/06/20 12:04:24;;;;;;;4.18;2.50;;;;;;;;;;5035072;28;20193;-70
2023/06/20 12:07:28;;;;;;;4.57;2.20;;;;;;;;;;5035114;28;20197;-70
2023/06/20 12:10:34;;;;;;;5.90;2.40;;;;;;;;;;5035196;28;20201;-70
2023/06/20 12:13:43;;;;;;;7.40;2.63;;;;;;;;;;5035036;28;20178;-70
2023/06/20 12:16:48;;;;;;;5.55;2.67;;;;;;;;;;5035026;28;20182;-69
2023/06/20 12:19:53;;;;;;;7.78;2.85;;;;;;;;;;5034373;28;20173;-70
2023/06/20 12:22:57;;;;;;;4.78;2.45;;;;;;;;;;5034983;28;20229;-71
2023/06/20 12:26:01;;;;;;;5.80;2.55;;;;;;;;;;5033982;28;20181;-70
2023/06/20 12:29:08;;;;;;;7.93;2.55;;;;;;;;;;5034075;28;20624;-70
2023/06/20 12:32:12;;;;;;;10.13;2.47;;;;;;;;;;5034560;28;20205;-70
2023/06/20 12:35:17;;;;;;;5.80;2.67;;;;;;;;;;5034290;28;20193;-70
2023/06/20 12:38:21;;;;;;;4.40;2.22;;;;;;;;;;5034412;28;20201;-70
2023/06/20 12:41:32;;;;;;;4.43;2.40;;;;;;;;;;5033687;28;20687;-70
2023/06/20 12:44:37;;;;;;;6.38;2.60;;;;;;;;;;5033879;28;20181;-70
2023/06/20 12:47:41;;;;;;;5.75;2.50;;;;;;;;;;5033662;28;20508;-70
2023/06/20 12:50:45;;;;;;;9.77;2.35;;;;;;;;;;5034663;28;20180;-70
2023/06/20 12:53:49;;;;;;;10.27;2.63;;;;;;;;;;5034188;28;20189;-71
2023/06/20 12:56:54;;;;;;;4.57;2.30;;;;;;;;;;5034156;28;20189;-70
2023/06/20 12:59:58;;;;;;;4.43;2.28;;;;;;;;;;5034552;28;20200;-70
2023/06/20 13:03:02;;;;;;;7.03;3.05;;;;;;;;;;5033166;28;20224;-70
2023/06/20 13:06:07;;;;;;;7.78;2.50;;;;;;;;;;5033124;28;20205;-70
2023/06/20 13:09:10;;;;;;;7.95;3.00;;;;;;;;;;5033926;28;20177;-70
2023/06/20 13:12:15;;;;;;;8.00;2.67;;;;;;;;;;5033827;28;20212;-70
2023/06/20 13:15:24;;;;;;;7.72;2.60;;;;;;;;;;5033141;28;20177;-70
2023/06/20 13:18:28;;;;;;;7.32;2.75;;;;;;;;;;5033946;28;20185;-71
2023/06/20 13:21:34;;;;;;;9.07;2.58;;;;;;;;;;5033762;28;20228;-71
2023/06/20 13:24:42;;;;;;;5.57;2.53;;;;;;;;;;5032796;28;20173;-70
2023/06/20 13:27:47;;;;;;;6.65;2.30;;;;;;;;;;5033858;28;20635;-70
2023/06/20 13:30:52;;;;;;;8.20;2.60;;;;;;;;;;5033728;28;20687;-70
2023/06/20 13:33:56;;;;;;;10.35;2.72;;;;;;;;;;5032776;28;20197;-70
2023/06/20 13:37:00;;;;;;;5.28;2.45;;;;;;;;;;5033718;28;20196;-70
2023/06/20 13:40:07;;;;;;;6.15;2.50;;;;;;;;;;5033662;28;20196;-70
2023/06/20 13:43:12;;;;;;;7.88;2.50;;;;;;;;;;5033638;28;20209;-70
2023/06/20 13:46:16;;;;;;;7.13;2.22;;;;;;;;;;5033459;28;20181;-70
2023/06/20 13:49:20;;;;;;;5.40;2.22;;;;;;;;;;5034348;28;20620;-70
2023/06/20 13:52:24;;;;;;;7.47;2.40;;;;;;;;;;5031881;28;20212;-70
2023/06/20 13:55:28;;;;;;;9.52;2.88;;;;;;;;;;5033458;28;20185;-70
2023/06/20 13:58:32;;;;;;;6.82;2.30;;;;;;;;;;5033490;28;20177;-70
2023/06/20 14:01:36;;;;;;;5.30;2.05;;;;;;;;;;5033119;28;20224;-70
2023/06/20 14:04:42;;;;;;;5.75;2.28;;;;;;;;;;5033190;28;20213;-70
2023/06/20 14:07:46;;;;;;;8.40;2.50;;;;;;;;;;5021208;28;20655;-71
2023/06/20 14:10:50;;;;;;;6.68;2.03;;;;;;;;;;5033301;28;20220;-70
2023/06/20 14:13:54;;;;;;;8.43;2.22;;;;;;;;;;5032254;28;20169;-70
2023/06/20 14:16:58;;;;;;;7.93;2.50;;;;;;;;;;5033035;28;20177;-70
2023/06/20 14:20:09;;;;;;;5.97;2.25;;;;;;;;;;5033287;28;20248;-70
2023/06/20 14:23:13;;;;;;;6.90;2.53;;;;;;;;;;5032884;28;20680;-70
2023/06/20 14:26:19;;;;;;;6.57;2.80;;;;;;;;;;5032725;28;20177;-70
2023/06/20 14:29:23;;;;;;;8.73;2.40;;;;;;;;;;5033205;28;20173;-71
2023/06/20 14:32:27;;;;;;;6.85;2.83;;;;;;;;;;5033098;28;20204;-73
2023/06/20 14:35:31;;;;;;;6.10;2.65;;;;;;;;;;5033131;28;20181;-70
2023/06/20 14:38:39;;;;;;;5.03;2.30;;;;;;;;;;5032796;28;20651;-70
2023/06/20 14:41:43;;;;;;;6.03;2.45;;;;;;;;;;5020689;28;20212;-69
2023/06/20 14:44:47;;;;;;;7.68;2.30;;;;;;;;;;5031993;28;20524;-70
2023/06/20 14:47:52;;;;;;;6.35;2.28;;;;;;;;;;5033035;28;20181;-70
2023/06/20 14:50:56;;;;;;;5.47;2.30;;;;;;;;;;5033175;28;20217;-70
2023/06/20 14:54:00;;;;;;;6.88;2.50;;;;;;;;;;5032673;28;20652;-70
2023/06/20 14:57:05;;;;;;;5.82;2.53;;;;;;;;;;5032736;28;20197;-70
2023/06/20 15:00:14;;;;;;;5.68;2.65;;;;;;;;;;5032597;28;20197;-70
2023/06/20 15:03:18;;;;;;;9.93;2.90;;;;;;;;;;5032510;28;20216;-70
2023/06/20 15:06:23;;;;;;;6.47;2.35;;;;;;;;;;5036241;28;20197;-70
2023/06/20 15:09:27;;;;;;;6.22;2.42;;;;;;;;;;5036345;28;20181;-70
2023/06/20 15:12:31;;;;;;;10.23;2.47;;;;;;;;;;5035220;28;20216;-70
2023/06/20 15:15:36;;;;;;;10.77;3.15;;;;;;;;;;5035979;28;20197;-70
2023/06/20 15:18:40;;;;;;;8.63;2.70;;;;;;;;;;5035122;28;20675;-70
2023/06/20 15:21:44;;;;;;;9.57;2.83;;;;;;;;;;5035844;28;20216;-69
2023/06/20 15:24:48;;;;;;;7.03;2.42;;;;;;;;;;5035706;28;20173;-69
2023/06/20 15:27:52;;;;;;;8.02;2.65;;;;;;;;;;5035729;28;20174;-70
2023/06/20 15:30:56;;;;;;;8.35;2.50;;;;;;;;;;5034934;28;20216;-69
2023/06/20 15:34:01;;;;;;;8.85;2.97;;;;;;;;;;5035598;28;20173;-70
2023/06/20 15:37:05;;;;;;;6.00;2.53;;;;;;;;;;5035719;28;20173;-70
2023/06/20 15:40:10;;;;;;;7.47;2.92;;;;;;;;;;5034625;28;20182;-70
2023/06/20 15:43:15;;;;;;;5.55;2.72;;;;;;;;;;5034229;28;20201;-71
2023/06/20 15:46:19;;;;;;;6.97;2.50;;;;;;;;;;5035449;28;20655;-70
2023/06/20 15:49:24;;;;;;;8.13;2.60;;;;;;;;;;5023617;28;20624;-71
2023/06/20 15:52:29;;;;;;;6.07;2.58;;;;;;;;;;5035339;28;20209;-71
2023/06/20 15:55:33;;;;;;;7.55;3.25;;;;;;;;;;5035422;28;20181;-71
2023/06/20 15:58:40;;;;;;;10.35;2.60;;;;;;;;;;5035643;28;20185;-70
2023/06/20 16:01:44;;;;;;;6.40;2.70;;;;;;;;;;5034459;28;20217;-71
2023/06/20 16:04:48;;;;;;;7.43;2.40;;;;;;;;;;5035307;28;20200;-71
2023/06/20 16:07:52;;;;;;;9.93;3.17;;;;;;;;;;5035110;28;20177;-71
2023/06/20 16:10:57;;;;;;;6.65;2.88;;;;;;;;;;5034985;28;20217;-70
2023/06/20 16:14:01;;;;;;;8.02;3.13;;;;;;;;;;5034226;28;20177;-70
2023/06/20 16:17:07;;;;;;;9.18;2.78;;;;;;;;;;5034153;28;20177;-71
2023/06/20 16:20:11;;;;;;;9.73;3.13;;;;;;;;;;5035409;28;20189;-71
2023/06/20 16:23:15;;;;;;;8.15;2.78;;;;;;;;;;5033926;28;20205;-71
2023/06/20 16:26:19;;;;;;;10.38;3.25;;;;;;;;;;5034732;28;20177;-70
2023/06/20 16:29:24;;;;;;;11.80;3.33;;;;;;;;;;5033827;28;20177;-71
2023/06/20 16:32:27;;;;;;;17.98;3.17;;;;;;;;;;5034741;28;20205;-71
2023/06/20 16:35:32;;;;;;;6.97;2.72;;;;;;;;;;5034849;28;20182;-70
2023/06/20 16:38:36;;;;;;;7.20;3.70;;;;;;;;;;5034428;28;20177;-70
2023/06/20 16:41:41;;;;;;;5.80;2.80;;;;;;;;;;5034322;28;20213;-70
2023/06/20 16:44:45;;;;;;;12.48;3.50;;;;;;;;;;5033624;28;20173;-71
2023/06/20 16:47:50;;;;;;;6.88;2.90;;;;;;;;;;5034380;28;20181;-70
2023/06/20 16:50:54;;;;;;;9.95;3.45;;;;;;;;;;5033420;28;20213;-70
2023/06/20 16:53:58;;;;;;;12.10;3.33;;;;;;;;;;5034219;28;20192;-71
2023/06/20 16:57:02;;;;;;;7.35;2.92;;;;;;;;;;5033690;28;20193;-71
2023/06/20 17:00:07;;;;;;;10.02;3.13;;;;;;;;;;5034649;28;20181;-71
2023/06/20 17:03:12;;;;;;;9.55;2.95;;;;;;;;;;5033999;28;20667;-70
2023/06/20 17:06:17;;;;;;;10.70;3.30;;;;;;;;;;5037528;22;20237;-71
2023/06/20 17:09:21;;;;;;;6.65;3.10;;;;;;;;;;5014248;28;20174;-71
2023/06/20 17:12:25;;;;;;;7.70;3.35;;;;;;;;;;5014131;28;20209;-71
2023/06/20 17:15:29;;;;;;;7.63;3.20;;;;;;;;;;4994443;28;20178;-71
2023/06/20 17:18:33;;;;;;;9.90;3.38;;;;;;;;;;4994589;28;20183;-72
2023/06/20 17:21:37;;;;;;;7.15;3.30;;;;;;;;;;4994519;28;20222;-71
2023/06/20 17:24:42;;;;;;;10.10;3.33;;;;;;;;;;4994585;28;20210;-71
2023/06/20 17:27:46;;;;;;;6.18;3.10;;;;;;;;;;4994491;28;20183;-71
2023/06/20 17:30:50;;;;;;;9.55;3.53;;;;;;;;;;4994286;28;20217;-71
2023/06/20 17:33:54;;;;;;;7.32;3.33;;;;;;;;;;4994494;28;20181;-71
2023/06/20 17:36:58;;;;;;;9.82;3.80;;;;;;;;;;4994295;28;20181;-71
2023/06/20 17:40:03;;;;;;;6.32;2.97;;;;;;;;;;4993453;28;20198;-71
2023/06/20 17:43:07;;;;;;;8.80;3.17;;;;;;;;;;4994284;28;20217;-71
2023/06/20 17:46:11;;;;;;;14.15;3.40;;;;;;;;;;4994235;28;20186;-71
2023/06/20 17:49:15;;;;;;;6.35;2.97;;;;;;;;;;4993498;28;20182;-71
2023/06/20 17:52:20;;;;;;;7.07;2.88;;;;;;;;;;4994148;28;20561;-71
2023/06/20 17:55:24;;;;;;;13.32;3.05;;;;;;;;;;4993087;28;20188;-71
2023/06/20 17:58:28;;;;;;;11.68;3.53;;;;;;;;;;4993837;28;20530;-71
2023/06/20 18:01:33;;;;;;;9.73;3.15;;;;;;;;;;4993813;28;20577;-71
2023/06/20 18:04:37;;;;;;;7.93;3.70;;;;;;;;;;4993817;28;20233;-71
2023/06/20 18:07:41;;;;;;;9.57;3.47;;;;;;;;;;4993802;28;20210;-71
2023/06/20 18:10:46;;;;;;;11.18;3.72;;;;;;;;;;4993666;28;20189;-71
2023/06/20 18:13:50;;;;;;;15.38;3.53;;;;;;;;;;4993583;28;20631;-71
2023/06/20 18:16:54;;;;;;;10.52;3.60;;;;;;;;;;4993993;28;20182;-71
2023/06/20 18:19:58;;;;;;;6.70;3.13;;;;;;;;;;4993688;28;20187;-71
2023/06/20 18:23:02;;;;;;;10.07;3.35;;;;;;;;;;4993501;28;20557;-71
2023/06/20 18:26:06;;;;;;;8.98;3.20;;;;;;;;;;4993531;28;20524;-71
2023/06/20 18:29:11;;;;;;;8.05;3.60;;;;;;;;;;4992915;28;20190;-71
2023/06/20 18:32:15;;;;;;;9.88;3.53;;;;;;;;;;4992725;28;20216;-71